sensor_id;sensor_type;location;lat;lon;timestamp;P1;durP1;ratioP1;P2;durP2;ratioP2
39094;SDS011;24840;47.508;19.376;2023-12-20T00:01:54;61.53;;;28.80;;
39094;SDS011;24840;47.508;19.376;2023-12-20T00:04:20;87.40;;;28.67;;
39094;SDS011;24840;47.508;19.376;2023-12-20T00:06:46;63.03;;;28.00;;
39094;SDS011;24840;47.508;19.376;2023-12-20T00:09:12;65.13;;;28.60;;
39094;SDS011;24840;47.508;19.376;2023-12-20T00:11:38;63.03;;;28.87;;
39094;SDS011;24840;47.508;19.376;2023-12-20T00:14:07;70.43;;;30.03;;
39094;SDS011;24840;47.508;19.376;2023-12-20T00:16:33;59.83;;;27.13;;
39094;SDS011;24840;47.508;19.376;2023-12-20T00:18:59;76.33;;;27.53;;
39094;SDS011;24840;47.508;19.376;2023-12-20T00:21:25;65.00;;;29.77;;
39094;SDS011;24840;47.508;19.376;2023-12-20T00:23:51;85.60;;;30.30;;
39094;SDS011;24840;47.508;19.376;2023-12-20T00:26:17;65.93;;;29.87;;
39094;SDS011;24840;47.508;19.376;2023-12-20T00:28:43;67.37;;;31.60;;
39094;SDS011;24840;47.508;19.376;2023-12-20T00:31:09;59.87;;;28.73;;
39094;SDS011;24840;47.508;19.376;2023-12-20T00:33:35;66.10;;;30.20;;
39094;SDS011;24840;47.508;19.376;2023-12-20T00:36:01;64.43;;;28.50;;
39094;SDS011;24840;47.508;19.376;2023-12-20T00:38:27;59.83;;;30.50;;
39094;SDS011;24840;47.508;19.376;2023-12-20T00:40:53;60.30;;;30.83;;
39094;SDS011;24840;47.508;19.376;2023-12-20T00:43:19;63.33;;;32.87;;
39094;SDS011;24840;47.508;19.376;2023-12-20T00:45:45;75.27;;;33.70;;
39094;SDS011;24840;47.508;19.376;2023-12-20T00:48:11;64.83;;;33.40;;
39094;SDS011;24840;47.508;19.376;2023-12-20T00:50:37;76.43;;;34.70;;
39094;SDS011;24840;47.508;19.376;2023-12-20T00:53:03;75.37;;;33.93;;
39094;SDS011;24840;47.508;19.376;2023-12-20T00:55:30;58.13;;;33.13;;
39094;SDS011;24840;47.508;19.376;2023-12-20T00:57:56;57.43;;;33.10;;
39094;SDS011;24840;47.508;19.376;2023-12-20T01:00:24;49.00;;;32.07;;
39094;SDS011;24840;47.508;19.376;2023-12-20T01:02:50;45.40;;;29.87;;
39094;SDS011;24840;47.508;19.376;2023-12-20T01:05:17;50.00;;;32.40;;
39094;SDS011;24840;47.508;19.376;2023-12-20T01:07:44;45.23;;;29.43;;
39094;SDS011;24840;47.508;19.376;2023-12-20T01:10:10;42.63;;;26.80;;
39094;SDS011;24840;47.508;19.376;2023-12-20T01:12:36;45.43;;;27.33;;
39094;SDS011;24840;47.508;19.376;2023-12-20T01:15:02;44.77;;;29.03;;
39094;SDS011;24840;47.508;19.376;2023-12-20T01:17:28;43.23;;;27.90;;
39094;SDS011;24840;47.508;19.376;2023-12-20T01:19:54;63.43;;;30.97;;
39094;SDS011;24840;47.508;19.376;2023-12-20T01:22:20;47.73;;;29.03;;
39094;SDS011;24840;47.508;19.376;2023-12-20T01:24:46;53.80;;;29.47;;
39094;SDS011;24840;47.508;19.376;2023-12-20T01:27:12;47.20;;;29.93;;
39094;SDS011;24840;47.508;19.376;2023-12-20T01:29:38;46.27;;;29.33;;
39094;SDS011;24840;47.508;19.376;2023-12-20T01:32:04;46.50;;;30.50;;
39094;SDS011;24840;47.508;19.376;2023-12-20T01:34:30;42.37;;;29.10;;
39094;SDS011;24840;47.508;19.376;2023-12-20T01:36:56;48.33;;;31.20;;
39094;SDS011;24840;47.508;19.376;2023-12-20T01:39:22;50.07;;;33.13;;
39094;SDS011;24840;47.508;19.376;2023-12-20T01:41:48;49.77;;;33.20;;
39094;SDS011;24840;47.508;19.376;2023-12-20T01:44:14;49.97;;;33.30;;
39094;SDS011;24840;47.508;19.376;2023-12-20T01:46:40;52.97;;;32.73;;
39094;SDS011;24840;47.508;19.376;2023-12-20T01:49:06;55.93;;;32.93;;
39094;SDS011;24840;47.508;19.376;2023-12-20T01:51:33;46.20;;;31.33;;
39094;SDS011;24840;47.508;19.376;2023-12-20T01:53:59;51.33;;;31.53;;
39094;SDS011;24840;47.508;19.376;2023-12-20T01:56:26;44.17;;;27.30;;
39094;SDS011;24840;47.508;19.376;2023-12-20T01:58:54;48.40;;;28.80;;
39094;SDS011;24840;47.508;19.376;2023-12-20T02:01:21;52.80;;;31.77;;
39094;SDS011;24840;47.508;19.376;2023-12-20T02:03:47;44.30;;;27.73;;
39094;SDS011;24840;47.508;19.376;2023-12-20T02:06:13;43.03;;;28.03;;
39094;SDS011;24840;47.508;19.376;2023-12-20T02:08:39;44.83;;;27.10;;
39094;SDS011;24840;47.508;19.376;2023-12-20T02:11:06;41.27;;;27.20;;
39094;SDS011;24840;47.508;19.376;2023-12-20T02:13:32;49.20;;;29.07;;
39094;SDS011;24840;47.508;19.376;2023-12-20T02:15:58;44.80;;;29.27;;
39094;SDS011;24840;47.508;19.376;2023-12-20T02:18:24;46.73;;;28.80;;
39094;SDS011;24840;47.508;19.376;2023-12-20T02:20:50;55.57;;;28.83;;
39094;SDS011;24840;47.508;19.376;2023-12-20T02:23:16;58.83;;;27.93;;
39094;SDS011;24840;47.508;19.376;2023-12-20T02:25:42;46.47;;;28.57;;
39094;SDS011;24840;47.508;19.376;2023-12-20T02:28:08;45.27;;;28.27;;
39094;SDS011;24840;47.508;19.376;2023-12-20T02:30:34;49.57;;;30.57;;
39094;SDS011;24840;47.508;19.376;2023-12-20T02:33:00;51.17;;;29.77;;
39094;SDS011;24840;47.508;19.376;2023-12-20T02:35:27;42.17;;;28.07;;
39094;SDS011;24840;47.508;19.376;2023-12-20T02:37:53;41.57;;;26.70;;
39094;SDS011;24840;47.508;19.376;2023-12-20T02:40:19;52.47;;;29.27;;
39094;SDS011;24840;47.508;19.376;2023-12-20T02:42:45;46.60;;;30.43;;
39094;SDS011;24840;47.508;19.376;2023-12-20T02:45:10;46.33;;;28.33;;
39094;SDS011;24840;47.508;19.376;2023-12-20T02:47:36;43.20;;;26.27;;
39094;SDS011;24840;47.508;19.376;2023-12-20T02:50:03;47.23;;;29.67;;
39094;SDS011;24840;47.508;19.376;2023-12-20T02:52:29;45.77;;;29.00;;
39094;SDS011;24840;47.508;19.376;2023-12-20T02:54:55;50.50;;;29.23;;
39094;SDS011;24840;47.508;19.376;2023-12-20T02:57:21;48.17;;;29.47;;
39094;SDS011;24840;47.508;19.376;2023-12-20T02:59:47;47.87;;;30.03;;
39094;SDS011;24840;47.508;19.376;2023-12-20T03:02:13;45.37;;;28.23;;
39094;SDS011;24840;47.508;19.376;2023-12-20T03:04:39;42.33;;;27.03;;
39094;SDS011;24840;47.508;19.376;2023-12-20T03:07:05;56.50;;;30.87;;
39094;SDS011;24840;47.508;19.376;2023-12-20T03:09:31;48.63;;;30.63;;
39094;SDS011;24840;47.508;19.376;2023-12-20T03:11:57;48.07;;;28.43;;
39094;SDS011;24840;47.508;19.376;2023-12-20T03:14:23;59.47;;;31.13;;
39094;SDS011;24840;47.508;19.376;2023-12-20T03:16:49;49.37;;;29.33;;
39094;SDS011;24840;47.508;19.376;2023-12-20T03:19:16;47.53;;;30.23;;
39094;SDS011;24840;47.508;19.376;2023-12-20T03:21:42;52.93;;;31.87;;
39094;SDS011;24840;47.508;19.376;2023-12-20T03:24:08;54.83;;;31.30;;
39094;SDS011;24840;47.508;19.376;2023-12-20T03:26:34;50.00;;;29.57;;
39094;SDS011;24840;47.508;19.376;2023-12-20T03:29:00;58.83;;;34.30;;
39094;SDS011;24840;47.508;19.376;2023-12-20T03:31:26;57.33;;;33.47;;
39094;SDS011;24840;47.508;19.376;2023-12-20T03:33:52;54.93;;;31.83;;
39094;SDS011;24840;47.508;19.376;2023-12-20T03:36:19;57.67;;;32.37;;
39094;SDS011;24840;47.508;19.376;2023-12-20T03:38:45;48.80;;;30.63;;
39094;SDS011;24840;47.508;19.376;2023-12-20T03:41:11;52.40;;;32.67;;
39094;SDS011;24840;47.508;19.376;2023-12-20T03:43:37;51.33;;;33.07;;
39094;SDS011;24840;47.508;19.376;2023-12-20T03:46:03;50.60;;;32.97;;
39094;SDS011;24840;47.508;19.376;2023-12-20T03:48:29;48.53;;;30.93;;
39094;SDS011;24840;47.508;19.376;2023-12-20T03:50:56;53.23;;;33.17;;
39094;SDS011;24840;47.508;19.376;2023-12-20T03:53:22;51.17;;;32.53;;
39094;SDS011;24840;47.508;19.376;2023-12-20T03:55:48;52.13;;;33.67;;
39094;SDS011;24840;47.508;19.376;2023-12-20T03:58:14;50.60;;;35.33;;
39094;SDS011;24840;47.508;19.376;2023-12-20T04:00:40;59.10;;;33.93;;
39094;SDS011;24840;47.508;19.376;2023-12-20T04:03:06;72.37;;;35.90;;
39094;SDS011;24840;47.508;19.376;2023-12-20T04:05:32;57.93;;;34.20;;
39094;SDS011;24840;47.508;19.376;2023-12-20T04:07:59;58.27;;;36.03;;
39094;SDS011;24840;47.508;19.376;2023-12-20T04:10:25;52.90;;;32.90;;
39094;SDS011;24840;47.508;19.376;2023-12-20T04:12:51;67.63;;;33.67;;
39094;SDS011;24840;47.508;19.376;2023-12-20T04:15:17;60.30;;;35.77;;
39094;SDS011;24840;47.508;19.376;2023-12-20T04:17:43;65.57;;;32.67;;
39094;SDS011;24840;47.508;19.376;2023-12-20T04:20:09;53.63;;;32.10;;
39094;SDS011;24840;47.508;19.376;2023-12-20T04:22:36;61.10;;;32.87;;
39094;SDS011;24840;47.508;19.376;2023-12-20T04:25:02;55.60;;;32.90;;
39094;SDS011;24840;47.508;19.376;2023-12-20T04:27:28;54.50;;;33.23;;
39094;SDS011;24840;47.508;19.376;2023-12-20T04:29:54;48.67;;;31.03;;
39094;SDS011;24840;47.508;19.376;2023-12-20T04:32:20;55.17;;;32.00;;
39094;SDS011;24840;47.508;19.376;2023-12-20T04:34:46;50.90;;;30.67;;
39094;SDS011;24840;47.508;19.376;2023-12-20T04:37:12;52.23;;;32.53;;
39094;SDS011;24840;47.508;19.376;2023-12-20T04:39:38;50.37;;;31.23;;
39094;SDS011;24840;47.508;19.376;2023-12-20T04:42:04;56.77;;;31.37;;
39094;SDS011;24840;47.508;19.376;2023-12-20T04:44:30;52.97;;;32.60;;
39094;SDS011;24840;47.508;19.376;2023-12-20T04:46:56;60.10;;;32.27;;
39094;SDS011;24840;47.508;19.376;2023-12-20T04:49:22;53.07;;;32.77;;
39094;SDS011;24840;47.508;19.376;2023-12-20T04:51:48;54.00;;;34.10;;
39094;SDS011;24840;47.508;19.376;2023-12-20T04:54:14;62.43;;;38.33;;
39094;SDS011;24840;47.508;19.376;2023-12-20T04:56:40;55.50;;;33.90;;
39094;SDS011;24840;47.508;19.376;2023-12-20T04:59:06;62.37;;;34.00;;
39094;SDS011;24840;47.508;19.376;2023-12-20T05:01:32;66.80;;;33.77;;
39094;SDS011;24840;47.508;19.376;2023-12-20T05:03:58;58.30;;;31.93;;
39094;SDS011;24840;47.508;19.376;2023-12-20T05:06:25;50.47;;;30.27;;
39094;SDS011;24840;47.508;19.376;2023-12-20T05:08:51;50.07;;;29.00;;
39094;SDS011;24840;47.508;19.376;2023-12-20T05:11:17;52.73;;;29.80;;
39094;SDS011;24840;47.508;19.376;2023-12-20T05:13:43;51.13;;;29.30;;
39094;SDS011;24840;47.508;19.376;2023-12-20T05:16:09;53.40;;;33.07;;
39094;SDS011;24840;47.508;19.376;2023-12-20T05:18:35;55.17;;;32.10;;
39094;SDS011;24840;47.508;19.376;2023-12-20T05:21:01;47.60;;;30.80;;
39094;SDS011;24840;47.508;19.376;2023-12-20T05:23:27;55.60;;;28.97;;
39094;SDS011;24840;47.508;19.376;2023-12-20T05:25:53;52.40;;;30.40;;
39094;SDS011;24840;47.508;19.376;2023-12-20T05:28:19;82.10;;;31.77;;
39094;SDS011;24840;47.508;19.376;2023-12-20T05:30:45;62.00;;;30.23;;
39094;SDS011;24840;47.508;19.376;2023-12-20T05:33:11;64.40;;;30.37;;
39094;SDS011;24840;47.508;19.376;2023-12-20T05:35:37;47.37;;;28.77;;
39094;SDS011;24840;47.508;19.376;2023-12-20T05:38:03;48.20;;;31.63;;
39094;SDS011;24840;47.508;19.376;2023-12-20T05:40:29;46.73;;;29.90;;
39094;SDS011;24840;47.508;19.376;2023-12-20T05:42:55;50.40;;;32.77;;
39094;SDS011;24840;47.508;19.376;2023-12-20T05:45:21;60.57;;;33.00;;
39094;SDS011;24840;47.508;19.376;2023-12-20T05:47:47;55.77;;;31.73;;
39094;SDS011;24840;47.508;19.376;2023-12-20T05:50:13;62.80;;;35.57;;
39094;SDS011;24840;47.508;19.376;2023-12-20T05:52:39;56.63;;;33.73;;
39094;SDS011;24840;47.508;19.376;2023-12-20T05:55:06;51.93;;;32.13;;
39094;SDS011;24840;47.508;19.376;2023-12-20T05:57:32;53.40;;;30.47;;
39094;SDS011;24840;47.508;19.376;2023-12-20T05:59:58;67.33;;;32.63;;
39094;SDS011;24840;47.508;19.376;2023-12-20T06:02:24;54.53;;;34.10;;
39094;SDS011;24840;47.508;19.376;2023-12-20T06:04:50;59.10;;;31.10;;
39094;SDS011;24840;47.508;19.376;2023-12-20T06:07:16;60.37;;;34.07;;
39094;SDS011;24840;47.508;19.376;2023-12-20T06:09:44;60.70;;;29.57;;
39094;SDS011;24840;47.508;19.376;2023-12-20T06:12:10;53.90;;;30.70;;
39094;SDS011;24840;47.508;19.376;2023-12-20T06:14:36;48.07;;;29.83;;
39094;SDS011;24840;47.508;19.376;2023-12-20T06:17:03;52.40;;;28.37;;
39094;SDS011;24840;47.508;19.376;2023-12-20T06:19:29;67.43;;;29.43;;
39094;SDS011;24840;47.508;19.376;2023-12-20T06:21:55;53.03;;;29.47;;
39094;SDS011;24840;47.508;19.376;2023-12-20T06:24:22;59.53;;;30.03;;
39094;SDS011;24840;47.508;19.376;2023-12-20T06:26:52;45.60;;;29.03;;
39094;SDS011;24840;47.508;19.376;2023-12-20T06:29:19;56.17;;;31.43;;
39094;SDS011;24840;47.508;19.376;2023-12-20T06:31:45;49.10;;;29.87;;
39094;SDS011;24840;47.508;19.376;2023-12-20T06:34:11;53.37;;;27.00;;
39094;SDS011;24840;47.508;19.376;2023-12-20T06:36:37;51.07;;;29.77;;
39094;SDS011;24840;47.508;19.376;2023-12-20T06:39:03;107.93;;;30.67;;
39094;SDS011;24840;47.508;19.376;2023-12-20T06:41:29;58.20;;;29.57;;
39094;SDS011;24840;47.508;19.376;2023-12-20T06:43:55;47.07;;;27.70;;
39094;SDS011;24840;47.508;19.376;2023-12-20T06:46:21;54.93;;;28.13;;
39094;SDS011;24840;47.508;19.376;2023-12-20T06:48:47;46.97;;;28.03;;
39094;SDS011;24840;47.508;19.376;2023-12-20T06:51:16;45.10;;;29.13;;
39094;SDS011;24840;47.508;19.376;2023-12-20T06:53:44;51.00;;;27.33;;
39094;SDS011;24840;47.508;19.376;2023-12-20T06:56:10;43.30;;;26.43;;
39094;SDS011;24840;47.508;19.376;2023-12-20T06:58:41;43.90;;;25.37;;
39094;SDS011;24840;47.508;19.376;2023-12-20T07:01:13;42.67;;;27.00;;
39094;SDS011;24840;47.508;19.376;2023-12-20T07:03:39;40.57;;;27.30;;
39094;SDS011;24840;47.508;19.376;2023-12-20T07:06:06;46.77;;;29.60;;
39094;SDS011;24840;47.508;19.376;2023-12-20T07:08:32;57.73;;;31.13;;
39094;SDS011;24840;47.508;19.376;2023-12-20T07:10:59;46.90;;;31.10;;
39094;SDS011;24840;47.508;19.376;2023-12-20T07:13:25;50.07;;;30.07;;
39094;SDS011;24840;47.508;19.376;2023-12-20T07:15:51;47.50;;;30.70;;
39094;SDS011;24840;47.508;19.376;2023-12-20T07:18:17;57.37;;;32.37;;
39094;SDS011;24840;47.508;19.376;2023-12-20T07:20:43;49.53;;;31.33;;
39094;SDS011;24840;47.508;19.376;2023-12-20T07:23:09;50.87;;;31.53;;
39094;SDS011;24840;47.508;19.376;2023-12-20T07:25:35;50.23;;;32.63;;
39094;SDS011;24840;47.508;19.376;2023-12-20T07:28:01;51.30;;;32.07;;
39094;SDS011;24840;47.508;19.376;2023-12-20T07:30:27;76.13;;;40.03;;
39094;SDS011;24840;47.508;19.376;2023-12-20T07:32:53;73.50;;;39.93;;
39094;SDS011;24840;47.508;19.376;2023-12-20T07:35:19;71.83;;;39.57;;
39094;SDS011;24840;47.508;19.376;2023-12-20T07:37:45;72.70;;;37.23;;
39094;SDS011;24840;47.508;19.376;2023-12-20T07:40:11;85.13;;;38.60;;
39094;SDS011;24840;47.508;19.376;2023-12-20T07:42:37;65.60;;;34.20;;
39094;SDS011;24840;47.508;19.376;2023-12-20T07:45:03;65.80;;;36.47;;
39094;SDS011;24840;47.508;19.376;2023-12-20T07:47:30;59.63;;;34.43;;
39094;SDS011;24840;47.508;19.376;2023-12-20T07:49:56;59.63;;;32.87;;
39094;SDS011;24840;47.508;19.376;2023-12-20T07:52:22;56.33;;;34.10;;
39094;SDS011;24840;47.508;19.376;2023-12-20T07:54:48;60.30;;;33.70;;
39094;SDS011;24840;47.508;19.376;2023-12-20T07:57:14;65.63;;;32.70;;
39094;SDS011;24840;47.508;19.376;2023-12-20T07:59:40;64.10;;;33.33;;
39094;SDS011;24840;47.508;19.376;2023-12-20T08:02:06;65.90;;;36.50;;
39094;SDS011;24840;47.508;19.376;2023-12-20T08:04:32;73.03;;;35.60;;
39094;SDS011;24840;47.508;19.376;2023-12-20T08:06:58;67.40;;;30.07;;
39094;SDS011;24840;47.508;19.376;2023-12-20T08:09:25;81.63;;;33.10;;
39094;SDS011;24840;47.508;19.376;2023-12-20T08:11:51;74.37;;;31.33;;
39094;SDS011;24840;47.508;19.376;2023-12-20T08:14:17;64.33;;;31.07;;
39094;SDS011;24840;47.508;19.376;2023-12-20T08:16:43;60.03;;;32.10;;
39094;SDS011;24840;47.508;19.376;2023-12-20T08:19:09;64.90;;;28.83;;
39094;SDS011;24840;47.508;19.376;2023-12-20T08:21:35;67.10;;;31.50;;
39094;SDS011;24840;47.508;19.376;2023-12-20T08:24:01;62.57;;;31.23;;
39094;SDS011;24840;47.508;19.376;2023-12-20T08:26:28;98.03;;;34.43;;
39094;SDS011;24840;47.508;19.376;2023-12-20T08:28:54;55.10;;;30.60;;
39094;SDS011;24840;47.508;19.376;2023-12-20T08:31:20;100.67;;;34.20;;
39094;SDS011;24840;47.508;19.376;2023-12-20T08:33:47;45.47;;;27.67;;
39094;SDS011;24840;47.508;19.376;2023-12-20T08:36:13;57.00;;;31.47;;
39094;SDS011;24840;47.508;19.376;2023-12-20T08:38:39;51.20;;;30.20;;
39094;SDS011;24840;47.508;19.376;2023-12-20T08:41:06;55.23;;;34.90;;
39094;SDS011;24840;47.508;19.376;2023-12-20T08:43:33;85.57;;;32.23;;
39094;SDS011;24840;47.508;19.376;2023-12-20T08:46:00;54.83;;;28.63;;
39094;SDS011;24840;47.508;19.376;2023-12-20T08:48:26;54.17;;;29.43;;
39094;SDS011;24840;47.508;19.376;2023-12-20T08:50:52;46.93;;;29.10;;
39094;SDS011;24840;47.508;19.376;2023-12-20T08:53:18;43.00;;;27.20;;
39094;SDS011;24840;47.508;19.376;2023-12-20T08:55:45;50.27;;;28.27;;
39094;SDS011;24840;47.508;19.376;2023-12-20T08:58:11;46.83;;;30.03;;
39094;SDS011;24840;47.508;19.376;2023-12-20T09:00:37;67.23;;;37.63;;
39094;SDS011;24840;47.508;19.376;2023-12-20T09:03:04;134.17;;;38.60;;
39094;SDS011;24840;47.508;19.376;2023-12-20T09:05:30;113.17;;;37.80;;
39094;SDS011;24840;47.508;19.376;2023-12-20T09:07:56;61.97;;;32.67;;
39094;SDS011;24840;47.508;19.376;2023-12-20T09:10:22;58.37;;;33.83;;
39094;SDS011;24840;47.508;19.376;2023-12-20T09:12:49;60.40;;;32.87;;
39094;SDS011;24840;47.508;19.376;2023-12-20T09:15:15;88.93;;;34.67;;
39094;SDS011;24840;47.508;19.376;2023-12-20T09:17:41;58.80;;;35.43;;
39094;SDS011;24840;47.508;19.376;2023-12-20T09:20:08;61.23;;;34.17;;
39094;SDS011;24840;47.508;19.376;2023-12-20T09:22:35;57.37;;;31.63;;
39094;SDS011;24840;47.508;19.376;2023-12-20T09:25:03;42.73;;;28.20;;
39094;SDS011;24840;47.508;19.376;2023-12-20T09:27:29;50.43;;;33.00;;
39094;SDS011;24840;47.508;19.376;2023-12-20T09:29:55;52.40;;;31.80;;
39094;SDS011;24840;47.508;19.376;2023-12-20T09:32:21;51.47;;;31.07;;
39094;SDS011;24840;47.508;19.376;2023-12-20T09:34:47;47.53;;;30.87;;
39094;SDS011;24840;47.508;19.376;2023-12-20T09:37:13;50.67;;;30.70;;
39094;SDS011;24840;47.508;19.376;2023-12-20T09:39:39;46.87;;;31.03;;
39094;SDS011;24840;47.508;19.376;2023-12-20T09:42:06;52.53;;;33.87;;
39094;SDS011;24840;47.508;19.376;2023-12-20T09:44:32;52.73;;;32.83;;
39094;SDS011;24840;47.508;19.376;2023-12-20T09:47:02;53.13;;;32.70;;
39094;SDS011;24840;47.508;19.376;2023-12-20T09:49:29;60.40;;;35.33;;
39094;SDS011;24840;47.508;19.376;2023-12-20T09:51:55;55.83;;;34.27;;
39094;SDS011;24840;47.508;19.376;2023-12-20T09:54:22;57.13;;;37.53;;
39094;SDS011;24840;47.508;19.376;2023-12-20T09:56:48;55.93;;;34.63;;
39094;SDS011;24840;47.508;19.376;2023-12-20T09:59:15;52.10;;;33.23;;
39094;SDS011;24840;47.508;19.376;2023-12-20T10:01:41;55.50;;;34.67;;
39094;SDS011;24840;47.508;19.376;2023-12-20T10:04:08;59.37;;;35.63;;
39094;SDS011;24840;47.508;19.376;2023-12-20T10:06:37;55.93;;;35.13;;
39094;SDS011;24840;47.508;19.376;2023-12-20T10:09:03;63.23;;;37.60;;
39094;SDS011;24840;47.508;19.376;2023-12-20T10:11:29;61.50;;;38.50;;
39094;SDS011;24840;47.508;19.376;2023-12-20T10:13:58;60.07;;;37.87;;
39094;SDS011;24840;47.508;19.376;2023-12-20T10:16:26;63.23;;;40.07;;
39094;SDS011;24840;47.508;19.376;2023-12-20T10:18:55;67.47;;;39.83;;
39094;SDS011;24840;47.508;19.376;2023-12-20T10:21:25;62.20;;;39.90;;
39094;SDS011;24840;47.508;19.376;2023-12-20T10:23:54;60.80;;;38.50;;
39094;SDS011;24840;47.508;19.376;2023-12-20T10:26:21;62.77;;;39.07;;
39094;SDS011;24840;47.508;19.376;2023-12-20T10:28:50;71.57;;;42.13;;
39094;SDS011;24840;47.508;19.376;2023-12-20T10:31:30;62.70;;;39.17;;
39094;SDS011;24840;47.508;19.376;2023-12-20T10:33:57;63.63;;;41.03;;
39094;SDS011;24840;47.508;19.376;2023-12-20T10:36:24;67.40;;;41.97;;
39094;SDS011;24840;47.508;19.376;2023-12-20T10:38:52;66.80;;;40.07;;
39094;SDS011;24840;47.508;19.376;2023-12-20T10:41:25;69.77;;;45.70;;
39094;SDS011;24840;47.508;19.376;2023-12-20T10:43:52;64.93;;;41.00;;
39094;SDS011;24840;47.508;19.376;2023-12-20T10:46:19;62.03;;;40.50;;
39094;SDS011;24840;47.508;19.376;2023-12-20T10:48:45;59.93;;;38.63;;
39094;SDS011;24840;47.508;19.376;2023-12-20T10:51:13;64.80;;;40.93;;
39094;SDS011;24840;47.508;19.376;2023-12-20T10:53:39;68.93;;;41.23;;
39094;SDS011;24840;47.508;19.376;2023-12-20T10:56:06;68.53;;;41.40;;
39094;SDS011;24840;47.508;19.376;2023-12-20T10:58:33;64.30;;;42.80;;
39094;SDS011;24840;47.508;19.376;2023-12-20T11:01:02;64.87;;;42.43;;
39094;SDS011;24840;47.508;19.376;2023-12-20T11:03:31;67.50;;;41.40;;
39094;SDS011;24840;47.508;19.376;2023-12-20T11:06:08;64.37;;;40.07;;
39094;SDS011;24840;47.508;19.376;2023-12-20T11:08:40;65.77;;;41.17;;
39094;SDS011;24840;47.508;19.376;2023-12-20T11:11:14;72.17;;;43.03;;
39094;SDS011;24840;47.508;19.376;2023-12-20T11:16:18;60.58;;;38.55;;
39094;SDS011;24840;47.508;19.376;2023-12-20T11:18:45;63.73;;;40.13;;
39094;SDS011;24840;47.508;19.376;2023-12-20T11:21:11;68.43;;;40.60;;
39094;SDS011;24840;47.508;19.376;2023-12-20T11:23:39;64.67;;;39.53;;
39094;SDS011;24840;47.508;19.376;2023-12-20T11:26:08;64.03;;;39.23;;
39094;SDS011;24840;47.508;19.376;2023-12-20T11:28:34;52.43;;;37.20;;
39094;SDS011;24840;47.508;19.376;2023-12-20T11:31:00;62.40;;;39.30;;
39094;SDS011;24840;47.508;19.376;2023-12-20T11:35:55;59.50;;;38.17;;
39094;SDS011;24840;47.508;19.376;2023-12-20T11:38:21;60.63;;;37.57;;
39094;SDS011;24840;47.508;19.376;2023-12-20T11:40:51;57.73;;;34.93;;
39094;SDS011;24840;47.508;19.376;2023-12-20T11:43:35;49.65;;;33.88;;
39094;SDS011;24840;47.508;19.376;2023-12-20T11:46:04;54.33;;;33.42;;
39094;SDS011;24840;47.508;19.376;2023-12-20T11:48:31;51.93;;;34.03;;
39094;SDS011;24840;47.508;19.376;2023-12-20T11:50:57;51.57;;;34.60;;
39094;SDS011;24840;47.508;19.376;2023-12-20T11:53:23;53.13;;;34.90;;
39094;SDS011;24840;47.508;19.376;2023-12-20T11:55:49;42.10;;;30.80;;
39094;SDS011;24840;47.508;19.376;2023-12-20T11:58:15;49.47;;;33.27;;
39094;SDS011;24840;47.508;19.376;2023-12-20T12:00:42;62.27;;;38.17;;
39094;SDS011;24840;47.508;19.376;2023-12-20T12:03:08;50.60;;;35.00;;
39094;SDS011;24840;47.508;19.376;2023-12-20T12:05:35;47.10;;;32.17;;
39094;SDS011;24840;47.508;19.376;2023-12-20T12:08:02;44.73;;;30.43;;
39094;SDS011;24840;47.508;19.376;2023-12-20T12:10:31;44.83;;;30.33;;
39094;SDS011;24840;47.508;19.376;2023-12-20T12:12:57;47.40;;;29.57;;
39094;SDS011;24840;47.508;19.376;2023-12-20T12:15:23;42.93;;;29.63;;
39094;SDS011;24840;47.508;19.376;2023-12-20T12:17:55;44.63;;;30.47;;
39094;SDS011;24840;47.508;19.376;2023-12-20T12:20:22;44.30;;;30.80;;
39094;SDS011;24840;47.508;19.376;2023-12-20T12:22:58;42.17;;;28.37;;
39094;SDS011;24840;47.508;19.376;2023-12-20T12:25:25;39.53;;;26.00;;
39094;SDS011;24840;47.508;19.376;2023-12-20T12:27:51;39.87;;;26.27;;
39094;SDS011;24840;47.508;19.376;2023-12-20T12:30:17;41.67;;;25.37;;
39094;SDS011;24840;47.508;19.376;2023-12-20T12:32:43;38.10;;;26.03;;
39094;SDS011;24840;47.508;19.376;2023-12-20T12:35:10;40.53;;;27.10;;
39094;SDS011;24840;47.508;19.376;2023-12-20T12:37:39;42.30;;;26.80;;
39094;SDS011;24840;47.508;19.376;2023-12-20T12:40:15;38.80;;;27.30;;
39094;SDS011;24840;47.508;19.376;2023-12-20T12:42:42;43.47;;;27.43;;
39094;SDS011;24840;47.508;19.376;2023-12-20T12:45:08;35.25;;;24.85;;
39094;SDS011;24840;47.508;19.376;2023-12-20T12:47:35;38.90;;;24.80;;
39094;SDS011;24840;47.508;19.376;2023-12-20T12:50:01;36.53;;;24.23;;
39094;SDS011;24840;47.508;19.376;2023-12-20T12:52:27;37.93;;;23.30;;
39094;SDS011;24840;47.508;19.376;2023-12-20T12:54:53;24.93;;;15.00;;
39094;SDS011;24840;47.508;19.376;2023-12-20T12:57:19;16.77;;;11.10;;
39094;SDS011;24840;47.508;19.376;2023-12-20T12:59:46;13.47;;;9.20;;
39094;SDS011;24840;47.508;19.376;2023-12-20T13:02:12;11.23;;;8.10;;
39094;SDS011;24840;47.508;19.376;2023-12-20T13:04:39;10.47;;;7.53;;
39094;SDS011;24840;47.508;19.376;2023-12-20T13:07:05;10.23;;;7.27;;
39094;SDS011;24840;47.508;19.376;2023-12-20T13:09:31;8.43;;;6.03;;
39094;SDS011;24840;47.508;19.376;2023-12-20T13:11:57;9.57;;;7.37;;
39094;SDS011;24840;47.508;19.376;2023-12-20T13:14:24;8.37;;;6.23;;
39094;SDS011;24840;47.508;19.376;2023-12-20T13:16:50;9.93;;;5.90;;
39094;SDS011;24840;47.508;19.376;2023-12-20T13:19:16;11.00;;;7.07;;
39094;SDS011;24840;47.508;19.376;2023-12-20T13:21:42;10.37;;;7.10;;
39094;SDS011;24840;47.508;19.376;2023-12-20T13:24:08;8.80;;;6.33;;
39094;SDS011;24840;47.508;19.376;2023-12-20T13:26:34;10.53;;;6.97;;
39094;SDS011;24840;47.508;19.376;2023-12-20T13:29:00;12.00;;;7.10;;
39094;SDS011;24840;47.508;19.376;2023-12-20T13:31:26;7.03;;;5.60;;
39094;SDS011;24840;47.508;19.376;2023-12-20T13:33:52;9.33;;;7.03;;
39094;SDS011;24840;47.508;19.376;2023-12-20T13:36:18;10.97;;;6.90;;
39094;SDS011;24840;47.508;19.376;2023-12-20T13:38:44;9.60;;;5.40;;
39094;SDS011;24840;47.508;19.376;2023-12-20T13:41:10;7.23;;;5.30;;
39094;SDS011;24840;47.508;19.376;2023-12-20T13:43:37;8.73;;;6.20;;
39094;SDS011;24840;47.508;19.376;2023-12-20T13:46:03;9.90;;;6.67;;
39094;SDS011;24840;47.508;19.376;2023-12-20T13:48:29;7.23;;;5.47;;
39094;SDS011;24840;47.508;19.376;2023-12-20T13:50:55;10.17;;;5.63;;
39094;SDS011;24840;47.508;19.376;2023-12-20T13:53:22;8.63;;;6.07;;
39094;SDS011;24840;47.508;19.376;2023-12-20T13:55:48;7.93;;;6.10;;
39094;SDS011;24840;47.508;19.376;2023-12-20T13:58:14;7.27;;;5.37;;
39094;SDS011;24840;47.508;19.376;2023-12-20T14:00:40;9.77;;;6.53;;
39094;SDS011;24840;47.508;19.376;2023-12-20T14:03:06;14.07;;;6.37;;
39094;SDS011;24840;47.508;19.376;2023-12-20T14:05:34;7.83;;;5.53;;
39094;SDS011;24840;47.508;19.376;2023-12-20T14:08:01;9.43;;;6.27;;
39094;SDS011;24840;47.508;19.376;2023-12-20T14:10:27;12.83;;;8.53;;
39094;SDS011;24840;47.508;19.376;2023-12-20T14:12:56;9.20;;;6.87;;